createdAt,value
2018-12-15T00:02:45.941Z,80.30
2018-12-15T00:05:51.202Z,79.30
2018-12-15T00:08:54.449Z,79.90
2018-12-15T00:11:57.700Z,82.40
2018-12-15T00:15:00.965Z,81.90
2018-12-15T00:18:04.334Z,82.30
2018-12-15T00:21:07.609Z,82.60
2018-12-15T00:24:10.865Z,85.10
2018-12-15T00:27:14.114Z,86.70
2018-12-15T00:30:17.321Z,81.60
2018-12-15T00:33:20.548Z,78.20
2018-12-15T00:36:23.794Z,82.30
2018-12-15T00:39:27.045Z,82.00
2018-12-15T00:42:30.488Z,83.00
2018-12-15T00:45:33.757Z,81.10
2018-12-15T00:48:37.011Z,82.10
2018-12-15T00:51:40.228Z,83.10
2018-12-15T00:54:43.461Z,77.70
2018-12-15T00:57:46.697Z,82.00
2018-12-15T01:00:49.909Z,84.50
2018-12-15T01:03:53.155Z,85.10
2018-12-15T01:06:56.401Z,84.10
2018-12-15T01:09:59.640Z,85.50
2018-12-15T01:13:02.852Z,83.80
2018-12-15T01:16:06.125Z,83.60
2018-12-15T01:19:09.369Z,84.30
2018-12-15T01:22:12.592Z,83.60
2018-12-15T01:25:15.837Z,83.10
2018-12-15T01:28:19.085Z,82.60
2018-12-15T01:31:22.341Z,84.30
2018-12-15T01:34:25.557Z,84.10
2018-12-15T01:37:28.810Z,85.10
2018-12-15T01:40:32.112Z,85.70
2018-12-15T01:43:35.378Z,84.90
2018-12-15T01:46:38.637Z,84.70
2018-12-15T01:49:41.874Z,84.00
2018-12-15T01:52:45.108Z,85.30
2018-12-15T01:55:48.358Z,87.50
2018-12-15T01:58:51.576Z,88.60
2018-12-15T02:01:54.829Z,89.60
2018-12-15T02:04:58.045Z,90.10
2018-12-15T02:08:01.413Z,90.50
2018-12-15T02:11:04.677Z,91.00
2018-12-15T02:14:07.931Z,91.00
2018-12-15T02:17:11.840Z,90.60
2018-12-15T02:20:15.079Z,90.20
2018-12-15T02:23:18.437Z,90.10
2018-12-15T02:26:21.681Z,90.70
2018-12-15T02:29:24.896Z,90.90
2018-12-15T02:32:28.136Z,90.60
2018-12-15T02:35:31.470Z,90.90
2018-12-15T02:38:34.704Z,90.40
2018-12-15T02:41:38.048Z,89.80
2018-12-15T02:44:41.373Z,90.00
2018-12-15T02:47:44.561Z,90.30
2018-12-15T02:50:47.751Z,90.40
2018-12-15T02:53:50.972Z,90.50
2018-12-15T02:56:54.149Z,90.50
2018-12-15T02:59:57.348Z,90.70
2018-12-15T03:03:00.552Z,90.80
2018-12-15T03:06:03.897Z,91.00
2018-12-15T03:09:07.287Z,91.20
2018-12-15T03:12:12.507Z,90.80
2018-12-15T03:15:15.712Z,90.80
2018-12-15T03:18:18.933Z,90.60
2018-12-15T03:21:22.125Z,90.60
2018-12-15T03:24:25.284Z,91.00
2018-12-15T03:27:28.473Z,91.30
2018-12-15T03:30:31.913Z,90.80
2018-12-15T03:33:35.169Z,91.30
2018-12-15T03:36:38.788Z,91.00
2018-12-15T03:39:41.969Z,90.40
2018-12-15T03:42:45.180Z,90.40
2018-12-15T03:45:50.393Z,90.50
2018-12-15T03:48:54.166Z,90.40
2018-12-15T03:51:57.351Z,90.40
2018-12-15T03:55:00.532Z,89.40
2018-12-15T03:58:03.805Z,86.80
2018-12-15T04:01:07.109Z,87.60
2018-12-15T04:04:10.303Z,89.00
2018-12-15T04:07:13.497Z,88.70
2018-12-15T04:10:16.681Z,87.60
2018-12-15T04:13:19.917Z,88.30
2018-12-15T04:16:23.207Z,88.00
2018-12-15T04:19:26.415Z,88.60
2018-12-15T04:22:29.609Z,88.80
2018-12-15T04:25:32.805Z,88.90
2018-12-15T04:28:36.124Z,86.90
2018-12-15T04:31:39.320Z,87.60
2018-12-15T04:34:42.529Z,87.90
2018-12-15T04:37:45.725Z,88.30
2018-12-15T04:40:48.904Z,88.00
2018-12-15T04:43:52.573Z,87.70
2018-12-15T04:46:56.194Z,88.90
2018-12-15T04:49:59.421Z,88.50
2018-12-15T04:53:02.594Z,86.60
2018-12-15T04:56:05.803Z,86.40
2018-12-15T04:59:09.048Z,85.80
2018-12-15T05:02:12.263Z,85.80
2018-12-15T05:05:15.464Z,86.80
2018-12-15T05:08:18.632Z,87.30
2018-12-15T05:11:21.829Z,82.00
2018-12-15T05:14:25.003Z,83.40
2018-12-15T05:17:28.202Z,85.50
2018-12-15T05:20:31.633Z,86.00
2018-12-15T05:23:34.820Z,87.50
2018-12-15T05:26:38.005Z,88.10
2018-12-15T05:29:41.183Z,87.40
2018-12-15T05:32:44.376Z,85.90
2018-12-15T05:35:47.568Z,85.00
2018-12-15T05:38:50.790Z,88.40
2018-12-15T05:41:54.020Z,87.20
2018-12-15T05:44:57.193Z,87.60
2018-12-15T05:48:00.384Z,88.70
2018-12-15T05:51:03.737Z,88.80
2018-12-15T05:54:06.926Z,88.40
2018-12-15T05:57:10.121Z,81.50
2018-12-15T06:00:13.460Z,83.10
2018-12-15T06:03:16.672Z,85.10
2018-12-15T06:06:19.878Z,80.60
2018-12-15T06:09:23.085Z,79.80
2018-12-15T06:12:26.264Z,78.70
2018-12-15T06:15:29.456Z,78.80
2018-12-15T06:18:32.665Z,76.30
2018-12-15T06:21:35.948Z,77.70
2018-12-15T06:24:39.216Z,79.60
2018-12-15T06:27:42.416Z,80.90
2018-12-15T06:30:45.624Z,81.00
2018-12-15T06:33:48.791Z,81.30
2018-12-15T06:36:51.996Z,80.40
2018-12-15T06:39:55.209Z,78.60
2018-12-15T06:42:58.404Z,80.30
2018-12-15T06:46:01.623Z,80.20
2018-12-15T06:49:04.813Z,75.50
2018-12-15T06:52:08.031Z,77.90
2018-12-15T06:55:11.357Z,77.70
2018-12-15T06:58:14.552Z,77.30
2018-12-15T07:01:17.796Z,75.60
2018-12-15T07:04:20.980Z,75.10
2018-12-15T07:07:24.304Z,75.90
2018-12-15T07:10:27.496Z,74.10
2018-12-15T07:13:30.692Z,75.40
2018-12-15T07:16:34.009Z,76.80
2018-12-15T07:19:37.208Z,76.10
2018-12-15T07:22:40.428Z,77.20
2018-12-15T07:25:43.932Z,76.50
2018-12-15T07:28:48.241Z,75.10
2018-12-15T07:31:51.423Z,75.00
2018-12-15T07:35:00.744Z,77.70
2018-12-15T07:37:59.838Z,77.10
2018-12-15T07:41:03.177Z,77.90
2018-12-15T07:44:06.408Z,74.10
2018-12-15T07:47:09.585Z,75.50
2018-12-15T07:50:12.904Z,75.00
2018-12-15T07:53:16.129Z,74.40
2018-12-15T07:59:44.485Z,74.90
2018-12-15T08:02:47.688Z,75.90
2018-12-15T08:05:50.900Z,76.00
2018-12-15T08:08:54.071Z,78.10
2018-12-15T08:12:03.064Z,77.00
2018-12-15T08:15:07.899Z,76.10
2018-12-15T08:18:11.265Z,78.20
2018-12-15T08:21:14.472Z,78.40
2018-12-15T08:24:17.680Z,79.40
2018-12-15T08:27:20.906Z,78.20
2018-12-15T08:30:24.095Z,80.00
2018-12-15T08:33:27.328Z,78.80
2018-12-15T08:39:51.664Z,78.30
2018-12-15T08:42:54.955Z,78.40
2018-12-15T08:45:58.590Z,76.60
2018-12-15T08:49:04.781Z,76.50
2018-12-15T08:52:07.132Z,79.80
2018-12-15T08:55:10.368Z,77.10
2018-12-15T08:58:14.647Z,77.50
2018-12-15T09:01:18.077Z,77.30
2018-12-15T09:04:21.304Z,78.50
2018-12-15T09:07:24.500Z,78.00
2018-12-15T09:10:27.844Z,78.00
2018-12-15T09:13:31.132Z,78.40
2018-12-15T09:16:34.448Z,75.00
2018-12-15T09:19:37.666Z,76.60
2018-12-15T09:22:40.872Z,78.80
2018-12-15T09:25:44.857Z,79.10
2018-12-15T09:28:48.292Z,76.90
2018-12-15T09:31:51.504Z,77.00
2018-12-15T09:34:54.709Z,77.40
2018-12-15T09:37:59.035Z,77.10
2018-12-15T09:41:02.272Z,77.50
2018-12-15T09:44:05.620Z,76.70
2018-12-15T09:47:08.826Z,78.10
2018-12-15T09:50:13.046Z,77.40
2018-12-15T09:53:16.364Z,75.50
2018-12-15T09:56:19.676Z,75.70
2018-12-15T09:59:23.101Z,76.90
2018-12-15T10:02:26.303Z,79.30
2018-12-15T10:05:30.624Z,78.30
2018-12-15T10:08:33.848Z,77.40
2018-12-15T10:11:37.147Z,78.80
2018-12-15T10:14:40.472Z,77.50
2018-12-15T10:17:44.827Z,76.90
2018-12-15T10:20:48.003Z,76.90
2018-12-15T10:23:51.228Z,77.00
2018-12-15T10:26:54.440Z,77.30
2018-12-15T10:30:03.226Z,77.60
2018-12-15T10:33:06.620Z,79.30
2018-12-15T10:36:09.801Z,79.60
2018-12-15T10:39:13.132Z,77.90
2018-12-15T10:42:16.360Z,79.10
2018-12-15T10:45:20.088Z,78.50
2018-12-15T10:48:23.441Z,78.30
2018-12-15T10:51:26.768Z,79.30
2018-12-15T10:54:30.112Z,77.20
2018-12-15T10:57:33.677Z,77.40
2018-12-15T11:00:42.785Z,76.60
2018-12-15T11:03:46.392Z,77.20
2018-12-15T11:06:49.836Z,74.70
2018-12-15T11:09:53.246Z,80.00
2018-12-15T11:12:57.583Z,77.40
2018-12-15T11:16:01.929Z,75.70
2018-12-15T11:19:05.423Z,78.50
2018-12-15T11:22:08.742Z,78.20
2018-12-15T11:25:12.076Z,76.50
2018-12-15T11:28:15.420Z,78.20
2018-12-15T11:31:18.740Z,78.40
2018-12-15T11:34:22.241Z,77.40
2018-12-15T11:37:25.578Z,75.50
2018-12-15T11:40:28.780Z,75.90
2018-12-15T11:43:32.217Z,78.20
2018-12-15T11:46:35.556Z,76.00
2018-12-15T11:49:43.619Z,74.50
2018-12-15T11:52:44.109Z,78.30
2018-12-15T11:55:47.893Z,75.60
2018-12-15T11:58:54.928Z,77.80
2018-12-15T12:01:58.270Z,76.60
2018-12-15T12:05:01.613Z,76.80
2018-12-15T12:08:06.320Z,77.70
2018-12-15T12:11:09.532Z,92.10
2018-12-15T12:14:12.837Z,73.80
2018-12-15T12:17:16.238Z,74.40
2018-12-15T12:20:19.570Z,75.30
2018-12-15T12:23:22.888Z,77.00
2018-12-15T12:26:28.094Z,76.60
2018-12-15T12:29:31.320Z,77.50
2018-12-15T12:32:34.537Z,79.80
2018-12-15T12:35:37.752Z,77.80
2018-12-15T12:42:19.869Z,77.80
2018-12-15T12:45:23.777Z,78.40
2018-12-15T12:48:27.528Z,79.70
2018-12-15T12:51:30.941Z,75.40
2018-12-15T12:54:34.140Z,76.40
2018-12-15T12:57:37.475Z,76.70
2018-12-15T13:00:40.828Z,77.40
2018-12-15T13:03:44.257Z,76.30
2018-12-15T13:06:47.420Z,76.70
2018-12-15T13:09:50.605Z,75.40
2018-12-15T13:12:55.004Z,75.80
2018-12-15T13:15:58.208Z,76.50
2018-12-15T13:19:01.537Z,75.30
2018-12-15T13:22:04.865Z,76.50
2018-12-15T13:25:08.877Z,77.40
2018-12-15T13:28:12.063Z,80.70
2018-12-15T13:31:15.429Z,79.00
2018-12-15T13:34:18.621Z,76.70
2018-12-15T13:37:21.804Z,75.20
2018-12-15T13:40:25.002Z,78.00
2018-12-15T13:43:28.457Z,76.10
2018-12-15T13:46:31.808Z,77.70
2018-12-15T13:49:35.137Z,79.50
2018-12-15T13:52:38.449Z,76.50
2018-12-15T13:55:41.706Z,78.20
2018-12-15T13:58:44.954Z,77.60
2018-12-15T14:01:48.173Z,77.70
2018-12-15T14:04:51.384Z,77.80
2018-12-15T14:07:54.574Z,78.20
2018-12-15T14:10:58.564Z,75.10
2018-12-15T14:14:01.892Z,75.60
2018-12-15T14:17:05.690Z,76.60
2018-12-15T14:20:09.041Z,74.30
2018-12-15T14:23:12.352Z,76.70
2018-12-15T14:26:15.572Z,77.40
2018-12-15T14:29:18.748Z,75.50
2018-12-15T14:32:21.977Z,76.00
2018-12-15T14:35:25.185Z,78.20
2018-12-15T14:38:28.546Z,77.50
2018-12-15T14:41:31.720Z,76.90
2018-12-15T14:44:34.913Z,76.20
2018-12-15T14:47:38.231Z,76.80
2018-12-15T14:50:41.437Z,79.80
2018-12-15T14:53:45.784Z,77.70
2018-12-15T14:56:48.952Z,77.80
2018-12-15T14:59:52.837Z,78.10
2018-12-15T15:02:56.008Z,79.80
2018-12-15T15:05:59.205Z,77.20
2018-12-15T15:09:04.484Z,76.80
2018-12-15T15:12:09.727Z,76.50
2018-12-15T15:15:12.903Z,77.00
2018-12-15T15:18:16.141Z,75.80
2018-12-15T15:21:19.352Z,74.90
2018-12-15T15:24:22.883Z,77.70
2018-12-15T15:27:26.104Z,77.30
2018-12-15T15:30:29.280Z,77.20
2018-12-15T15:33:32.536Z,74.40
2018-12-15T15:36:35.773Z,75.60
2018-12-15T15:39:39.412Z,76.90
2018-12-15T15:42:42.644Z,76.60
2018-12-15T15:45:45.857Z,75.60
2018-12-15T15:48:49.065Z,76.60
2018-12-15T15:51:52.273Z,78.60
2018-12-15T15:54:55.540Z,77.50
2018-12-15T15:57:58.868Z,77.00
2018-12-15T16:01:02.050Z,76.30
2018-12-15T16:04:07.295Z,76.60
2018-12-15T16:07:10.477Z,76.00
2018-12-15T16:10:14.168Z,76.60
2018-12-15T16:13:17.397Z,78.20
2018-12-15T16:16:33.257Z,78.10
2018-12-15T16:19:36.476Z,77.80
2018-12-15T16:22:39.828Z,76.60
2018-12-15T16:25:43.137Z,76.90
2018-12-15T16:28:46.369Z,75.70
2018-12-15T16:31:49.585Z,75.20
2018-12-15T16:34:52.828Z,77.80
2018-12-15T16:37:56.416Z,76.20
2018-12-15T16:40:59.661Z,76.80
2018-12-15T16:44:03.176Z,76.00
2018-12-15T16:47:06.560Z,76.00
2018-12-15T16:50:13.414Z,76.70
2018-12-15T16:53:16.737Z,77.20
2018-12-15T16:59:42.696Z,76.90
2018-12-15T17:02:45.929Z,76.30
2018-12-15T17:05:49.289Z,77.90
2018-12-15T17:08:52.665Z,76.10
2018-12-15T17:11:56.624Z,76.70
2018-12-15T17:14:59.994Z,77.00
2018-12-15T17:18:03.376Z,76.60
2018-12-15T17:21:07.061Z,69.40
2018-12-15T17:24:11.444Z,69.60
2018-12-15T17:27:26.787Z,75.70
2018-12-15T17:30:30.157Z,77.40
2018-12-15T17:33:33.380Z,76.80
2018-12-15T17:36:36.724Z,76.90
2018-12-15T17:39:40.083Z,76.60
2018-12-15T17:42:43.473Z,78.30
2018-12-15T17:45:47.857Z,80.30
2018-12-15T17:48:51.232Z,80.10
2018-12-15T17:51:55.440Z,79.90
2018-12-15T17:54:58.815Z,79.60
2018-12-15T17:58:03.177Z,79.10
2018-12-15T18:01:06.589Z,80.10
2018-12-15T18:04:09.904Z,79.60
2018-12-15T18:07:13.137Z,79.70
2018-12-15T18:10:16.372Z,80.00
2018-12-15T18:13:19.614Z,78.60
2018-12-15T18:16:22.868Z,79.00
2018-12-15T18:19:27.534Z,81.10
2018-12-15T18:22:30.761Z,79.80
2018-12-15T18:25:34.215Z,79.80
2018-12-15T18:28:38.541Z,79.40
2018-12-15T18:31:41.790Z,79.80
2018-12-15T18:34:45.117Z,79.60
2018-12-15T18:37:49.473Z,78.80
2018-12-15T18:40:54.245Z,79.70
2018-12-15T18:43:58.997Z,79.80
2018-12-15T18:47:02.272Z,78.60
2018-12-15T18:50:08.331Z,78.90
2018-12-15T18:53:11.557Z,79.50
2018-12-15T18:56:14.889Z,79.70
2018-12-15T18:59:18.552Z,79.70
2018-12-15T19:02:28.400Z,80.00
2018-12-15T19:05:31.752Z,78.80
2018-12-15T19:08:35.118Z,78.00
2018-12-15T19:11:38.377Z,79.30
2018-12-15T19:14:41.724Z,79.00
2018-12-15T19:17:45.049Z,78.80
2018-12-15T19:20:48.256Z,77.60
2018-12-15T19:23:53.307Z,78.70
2018-12-15T19:26:56.637Z,78.30
2018-12-15T19:29:59.900Z,77.30
2018-12-15T19:33:03.146Z,78.50
2018-12-15T19:36:06.529Z,77.80
2018-12-15T19:39:09.873Z,78.00
2018-12-15T19:42:14.633Z,80.60
2018-12-15T19:45:18.006Z,79.30
2018-12-15T19:48:21.376Z,77.40
2018-12-15T19:51:29.630Z,78.60
2018-12-15T19:54:29.848Z,79.80
2018-12-15T19:57:33.061Z,78.70
2018-12-15T20:00:36.284Z,75.50
2018-12-15T20:03:39.663Z,76.00
2018-12-15T20:06:42.893Z,76.40
2018-12-15T20:09:46.106Z,77.30
2018-12-15T20:12:49.407Z,78.80
2018-12-15T20:15:52.905Z,76.40
2018-12-15T20:18:56.159Z,77.00
2018-12-15T20:21:59.537Z,75.50
2018-12-15T20:25:02.934Z,77.10
2018-12-15T20:28:06.176Z,78.80
2018-12-15T20:31:09.514Z,77.60
2018-12-15T20:34:12.744Z,78.10
2018-12-15T20:37:15.969Z,77.10
2018-12-15T20:40:19.205Z,77.80
2018-12-15T20:43:22.686Z,76.30
2018-12-15T20:46:26.673Z,78.10
2018-12-15T20:49:29.894Z,77.00
2018-12-15T20:52:33.112Z,77.80
2018-12-15T20:55:36.450Z,79.00
2018-12-15T20:58:39.714Z,77.60
2018-12-15T21:01:43.052Z,78.30
2018-12-15T21:04:46.281Z,77.90
2018-12-15T21:07:49.521Z,76.80
2018-12-15T21:10:52.824Z,78.30
2018-12-15T21:13:56.054Z,78.10
2018-12-15T21:16:59.256Z,76.50
2018-12-15T21:20:02.634Z,77.00
2018-12-15T21:23:07.829Z,76.40
2018-12-15T21:26:11.194Z,76.50
2018-12-15T21:29:14.596Z,76.30
2018-12-15T21:32:17.921Z,77.40
2018-12-15T21:35:21.161Z,76.70
2018-12-15T21:38:24.429Z,76.10
2018-12-15T21:41:27.776Z,77.10
2018-12-15T21:44:31.000Z,76.40
2018-12-15T21:47:34.235Z,76.90
2018-12-15T21:50:37.510Z,76.50
2018-12-15T21:53:40.734Z,75.70
2018-12-15T21:56:44.006Z,75.80
2018-12-15T21:59:47.248Z,76.60
2018-12-15T22:02:50.465Z,76.90
2018-12-15T22:05:53.705Z,76.50
2018-12-15T22:08:56.905Z,76.70
2018-12-15T22:12:00.146Z,76.20
2018-12-15T22:15:04.043Z,76.90
2018-12-15T22:18:07.301Z,76.70
2018-12-15T22:21:10.740Z,74.80
2018-12-15T22:24:14.000Z,76.10
2018-12-15T22:27:17.322Z,75.20
2018-12-15T22:30:20.612Z,76.60
2018-12-15T22:33:23.840Z,77.00
2018-12-15T22:36:27.082Z,76.90
2018-12-15T22:39:30.289Z,75.70
2018-12-15T22:42:33.518Z,76.30
2018-12-15T22:45:36.737Z,76.30
2018-12-15T22:48:40.010Z,74.70
2018-12-15T22:51:43.481Z,76.30
2018-12-15T22:54:46.801Z,75.60
2018-12-15T22:57:50.032Z,75.70
2018-12-15T23:00:59.813Z,74.40
2018-12-15T23:04:05.193Z,76.70
2018-12-15T23:07:08.565Z,75.10
2018-12-15T23:10:11.950Z,74.90
2018-12-15T23:13:15.150Z,75.60
2018-12-15T23:16:18.397Z,76.50
2018-12-15T23:19:21.592Z,75.50
2018-12-15T23:22:24.886Z,74.60
2018-12-15T23:25:28.172Z,76.10
2018-12-15T23:28:31.409Z,75.70
2018-12-15T23:31:34.632Z,76.50
2018-12-15T23:34:37.853Z,77.40
2018-12-15T23:37:41.097Z,75.50
2018-12-15T23:40:44.320Z,76.00
2018-12-15T23:43:47.529Z,76.80
2018-12-15T23:46:50.892Z,76.60
2018-12-15T23:49:54.169Z,77.00
2018-12-15T23:52:57.407Z,77.40
2018-12-15T23:56:00.657Z,73.80
2018-12-15T23:59:03.898Z,74.30
